Time,TemperatureF,DewpointF,PressureIn,WindDirection,WindDirectionDegrees,WindSpeedMPH,WindSpeedGustMPH,Humidity,HourlyPrecipIn,Conditions,Clouds,dailyrainin,SoftwareType,DateUTC
2013-05-16 00:00:00,67.8,53.9,29.87,South,180,0.0,1.7,61,0.00,,---,0.00,VWS V12.08,2013-05-16 04:00:00,
2013-05-16 00:16:00,67.8,53.9,29.86,SSE,158,0.0,0.0,61,0.00,,---,21.61,VWS V12.08,2013-05-16 04:16:00,
2013-05-16 00:20:00,67.6,53.7,29.86,SSE,158,0.0,0.0,61,0.00,,---,21.61,VWS V12.08,2013-05-16 04:20:00,
2013-05-16 00:33:00,67.4,53.5,29.86,South,180,0.0,0.0,61,0.00,,---,21.61,VWS V12.08,2013-05-16 04:33:00,
2013-05-16 00:40:00,67.2,53.8,29.86,South,180,0.0,1.5,62,0.00,,---,21.61,VWS V12.08,2013-05-16 04:40:00,
2013-05-16 00:53:00,67.2,53.8,29.86,South,180,0.0,0.0,62,0.00,,---,21.61,VWS V12.08,2013-05-16 04:53:00,
2013-05-16 01:03:00,67.1,53.7,29.86,South,180,0.0,0.0,62,0.00,,---,21.61,VWS V12.08,2013-05-16 05:03:00,
2013-05-16 01:23:00,66.7,53.3,29.85,SSW,202,0.0,0.0,62,0.00,,---,21.61,VWS V12.08,2013-05-16 05:23:00,
2013-05-16 01:41:00,66.7,53.7,29.85,South,180,0.0,2.9,63,0.00,,---,21.61,VWS V12.08,2013-05-16 05:41:00,
2013-05-16 02:03:00,66.3,53.8,29.85,ENE,68,0.6,2.9,64,0.00,,---,21.61,VWS V12.08,2013-05-16 06:03:00,
2013-05-16 02:22:00,66.0,53.5,29.84,SSE,158,0.0,0.6,64,0.00,,---,21.61,VWS V12.08,2013-05-16 06:22:00,
2013-05-16 02:41:00,65.8,53.7,29.83,SSE,158,0.0,0.0,65,0.00,,---,21.61,VWS V12.08,2013-05-16 06:41:00,
2013-05-16 03:01:00,65.3,53.7,29.83,SSE,158,0.0,0.0,66,0.00,,---,21.61,VWS V12.08,2013-05-16 07:01:00,
2013-05-16 03:18:00,65.1,53.5,29.83,SSE,158,0.0,0.0,66,0.00,,---,21.61,VWS V12.08,2013-05-16 07:18:00,
2013-05-16 03:20:00,65.1,53.5,29.83,SSE,158,0.0,0.0,66,0.00,,---,21.61,VWS V12.08,2013-05-16 07:20:00,
2013-05-16 03:37:00,64.9,53.3,29.83,SSW,202,0.0,0.0,66,0.00,,---,21.61,VWS V12.08,2013-05-16 07:37:00,
2013-05-16 03:40:00,64.9,53.3,29.83,SSW,202,0.0,0.0,66,0.00,,---,21.61,VWS V12.08,2013-05-16 07:40:00,
2013-05-16 03:56:00,65.1,53.5,29.83,SSW,202,0.0,0.0,66,0.00,,---,21.61,VWS V12.08,2013-05-16 07:56:00,
2013-05-16 04:01:00,64.9,53.3,29.83,SSW,202,0.0,0.0,66,0.00,,---,21.61,VWS V12.08,2013-05-16 08:01:00,
2013-05-16 04:18:00,64.9,53.3,29.83,SSW,202,0.0,0.0,66,0.00,,---,21.61,VWS V12.08,2013-05-16 08:18:00,
2013-05-16 04:20:00,64.9,53.3,29.83,SSW,202,0.0,0.0,66,0.00,,---,21.61,VWS V12.08,2013-05-16 08:20:00,
2013-05-16 04:37:00,64.9,53.7,29.84,SSW,202,0.0,0.0,67,0.00,,---,21.61,VWS V12.08,2013-05-16 08:37:00,
2013-05-16 04:40:00,64.9,53.7,29.83,SSW,202,0.0,0.0,67,0.00,,---,21.61,VWS V12.08,2013-05-16 08:40:00,
2013-05-16 04:56:00,64.9,53.7,29.84,SSW,202,0.0,0.0,67,0.00,,---,21.61,VWS V12.08,2013-05-16 08:56:00,
2013-05-16 05:01:00,64.9,53.3,29.84,SSW,202,0.0,0.6,66,0.00,,---,21.61,VWS V12.08,2013-05-16 09:01:00,
2013-05-16 05:26:00,64.9,53.7,29.85,SSW,202,0.0,0.0,67,0.00,,---,21.61,VWS V12.08,2013-05-16 09:26:00,
2013-05-16 05:31:00,64.9,53.7,29.85,SW,225,0.0,0.0,67,0.00,,---,21.61,VWS V12.08,2013-05-16 09:31:00,
2013-05-16 05:47:00,64.9,53.7,29.84,SW,225,0.0,0.0,67,0.00,,---,21.61,VWS V12.08,2013-05-16 09:47:00,
2013-05-16 06:08:00,64.9,53.7,29.84,SW,225,0.0,0.0,67,0.00,,---,21.61,VWS V12.08,2013-05-16 10:08:00,
2013-05-16 06:26:00,64.7,53.5,29.83,SW,225,0.0,0.0,67,0.00,,---,21.61,VWS V12.08,2013-05-16 10:26:00,
2013-05-16 06:31:00,64.5,53.7,29.84,SW,225,0.0,0.0,68,0.00,,---,21.61,VWS V12.08,2013-05-16 10:31:00,
2013-05-16 06:46:00,64.2,53.4,29.84,SW,225,0.0,0.0,68,0.00,,---,21.61,VWS V12.08,2013-05-16 10:46:00,
2013-05-16 07:01:00,64.0,53.6,29.85,SW,225,0.0,0.0,69,0.00,,---,21.61,VWS V12.08,2013-05-16 11:01:00,
2013-05-16 07:16:00,64.0,53.6,29.85,SSW,202,0.0,0.8,69,0.00,,---,21.61,VWS V12.08,2013-05-16 11:16:00,
2013-05-16 07:20:00,64.0,53.6,29.85,SSW,202,0.0,0.8,69,0.00,,---,21.61,VWS V12.08,2013-05-16 11:20:00,
2013-05-16 07:31:00,64.0,54.0,29.85,SSW,202,0.0,0.0,70,0.00,,---,21.61,VWS V12.08,2013-05-16 11:31:00,
2013-05-16 07:46:00,64.0,54.0,29.86,SSW,202,0.0,0.0,70,0.00,,---,21.61,VWS V12.08,2013-05-16 11:46:00,
2013-05-16 08:01:00,64.0,54.8,29.86,South,180,0.0,0.0,72,0.00,,---,21.61,VWS V12.08,2013-05-16 12:01:00,
2013-05-16 08:16:00,64.2,55.4,29.87,South,180,0.0,0.0,73,0.00,,---,21.61,VWS V12.08,2013-05-16 12:16:00,
2013-05-16 08:20:00,64.2,55.4,29.87,South,180,0.0,0.0,73,0.00,,---,21.61,VWS V12.08,2013-05-16 12:20:00,
2013-05-16 08:31:00,64.5,55.7,29.87,South,180,0.0,0.0,73,0.00,,---,21.61,VWS V12.08,2013-05-16 12:31:00,
2013-05-16 08:46:00,64.5,55.7,29.87,South,180,0.0,0.0,73,0.00,,---,21.61,VWS V12.08,2013-05-16 12:46:00,
2013-05-16 09:01:00,64.9,56.4,29.88,South,180,0.8,0.8,74,0.00,,---,21.61,VWS V12.08,2013-05-16 13:01:00,
2013-05-16 09:16:00,65.3,56.4,29.88,South,180,0.0,0.8,73,0.00,,---,21.61,VWS V12.08,2013-05-16 13:16:00,
2013-05-16 09:20:00,65.4,56.5,29.88,South,180,0.0,0.8,73,0.00,,---,21.61,VWS V12.08,2013-05-16 13:20:00,
2013-05-16 09:31:00,65.8,56.9,29.88,South,180,0.0,0.0,73,0.00,,---,21.61,VWS V12.08,2013-05-16 13:31:00,
2013-05-16 09:46:00,66.0,56.7,29.89,South,180,0.0,0.0,72,0.00,,---,21.61,VWS V12.08,2013-05-16 13:46:00,
2013-05-16 10:03:00,66.9,57.2,29.88,South,180,0.0,0.0,71,0.00,,---,21.61,VWS V12.08,2013-05-16 14:03:00,
2013-05-16 10:26:00,66.9,57.2,29.89,NNE,22,0.0,0.0,71,0.00,,---,21.61,VWS V12.08,2013-05-16 14:26:00,
2013-05-16 10:31:00,67.2,57.5,29.88,South,180,0.0,1.7,71,0.00,,---,21.61,VWS V12.08,2013-05-16 14:31:00,
2013-05-16 10:48:00,67.8,57.7,29.88,South,180,1.7,1.7,70,0.00,,---,21.61,VWS V12.08,2013-05-16 14:48:00,
2013-05-16 11:01:00,68.7,58.5,29.89,South,180,0.0,1.7,70,0.00,,---,21.61,VWS V12.08,2013-05-16 15:01:00,
2013-05-16 11:16:00,69.0,58.8,29.89,ESE,112,0.0,0.0,70,0.00,,---,21.61,VWS V12.08,2013-05-16 15:16:00,
2013-05-16 11:20:00,69.4,59.2,29.89,ESE,112,0.0,0.0,70,0.00,,---,21.61,VWS V12.08,2013-05-16 15:20:00,
2013-05-16 11:33:00,69.9,59.7,29.89,South,180,0.0,0.6,70,0.00,,---,21.61,VWS V12.08,2013-05-16 15:33:00,
2013-05-16 11:47:00,70.7,60.5,29.89,SSW,202,0.0,4.6,70,0.00,,---,21.61,VWS V12.08,2013-05-16 15:47:00,
2013-05-16 12:03:00,72.1,61.0,29.88,SSW,202,1.1,2.4,68,0.00,,---,21.61,VWS V12.08,2013-05-16 16:03:00,
2013-05-16 12:22:00,73.7,62.1,29.87,South,180,0.0,2.9,67,0.00,,---,21.61,VWS V12.08,2013-05-16 16:22:00,
2013-05-16 12:31:00,74.3,62.2,29.87,SSE,158,0.0,0.0,66,0.00,,---,21.61,VWS V12.08,2013-05-16 16:31:00,
2013-05-16 12:46:00,75.0,62.5,29.87,SSW,202,0.6,2.0,65,0.00,,---,21.61,VWS V12.08,2013-05-16 16:46:00,
2013-05-16 13:03:00,76.4,63.3,29.87,SSW,202,2.0,3.3,64,0.00,,---,21.61,VWS V12.08,2013-05-16 17:03:00,
2013-05-16 13:23:00,77.7,63.7,29.86,South,180,4.4,4.4,62,0.00,,---,21.61,VWS V12.08,2013-05-16 17:23:00,
2013-05-16 13:41:00,78.6,63.1,29.85,SSE,158,0.0,4.4,59,0.00,,---,21.61,VWS V12.08,2013-05-16 17:41:00,
2013-05-16 14:03:00,79.5,63.4,29.84,SE,135,0.0,3.1,58,0.00,,---,21.61,VWS V12.08,2013-05-16 18:03:00,
2013-05-16 14:22:00,80.7,63.6,29.84,South,180,2.0,4.2,56,0.00,,---,21.61,VWS V12.08,2013-05-16 18:22:00,
2013-05-16 14:31:00,81.1,63.4,29.84,NW,315,0.0,2.9,55,0.00,,---,21.61,VWS V12.08,2013-05-16 18:31:00,
2013-05-16 14:48:00,81.5,63.3,29.84,South,180,2.9,2.9,54,0.00,,---,21.61,VWS V12.08,2013-05-16 18:48:00,
2013-05-16 15:08:00,80.4,63.3,29.84,SE,135,0.0,2.9,56,0.00,,---,21.61,VWS V12.08,2013-05-16 19:08:00,
2013-05-16 15:16:00,79.1,62.1,29.84,ESE,112,0.0,2.9,56,0.00,,---,21.61,VWS V12.08,2013-05-16 19:16:00,
2013-05-16 15:20:00,78.6,61.6,29.84,East,90,0.0,2.9,56,0.00,,---,21.61,VWS V12.08,2013-05-16 19:20:00,
2013-05-16 15:33:00,78.6,62.1,29.84,SSW,202,1.5,0.0,57,0.00,,---,21.61,VWS V12.08,2013-05-16 19:33:00,
2013-05-16 15:40:00,79.7,63.1,29.83,SW,225,0.0,2.0,57,0.00,,---,21.61,VWS V12.08,2013-05-16 19:40:00,
2013-05-16 15:53:00,81.3,64.6,29.83,ENE,68,0.0,0.0,57,0.00,,---,21.61,VWS V12.08,2013-05-16 19:53:00,
2013-05-16 16:01:00,82.5,64.7,29.83,ENE,68,0.0,3.3,55,0.00,,---,21.61,VWS V12.08,2013-05-16 20:01:00,
2013-05-16 16:18:00,83.3,63.9,29.82,SSE,158,0.0,0.8,52,0.00,,---,21.61,VWS V12.08,2013-05-16 20:18:00,
2013-05-16 16:20:00,83.3,64.4,29.82,SSE,158,0.0,0.8,53,0.00,,---,21.61,VWS V12.08,2013-05-16 20:20:00,
2013-05-16 16:38:00,82.2,62.8,29.82,ENE,68,0.0,0.0,52,0.00,,---,21.61,VWS V12.08,2013-05-16 20:38:00,
2013-05-16 16:46:00,81.6,63.4,29.82,ENE,68,0.0,2.6,54,0.00,,---,21.61,VWS V12.08,2013-05-16 20:46:00,
2013-05-16 17:03:00,79.8,62.7,29.82,ESE,112,0.0,2.4,56,0.00,,---,21.61,VWS V12.08,2013-05-16 21:03:00,
2013-05-16 17:23:00,78.2,62.2,29.81,SSE,158,0.0,0.0,58,0.00,,---,21.61,VWS V12.08,2013-05-16 21:23:00,
2013-05-16 17:41:00,77.9,62.4,29.82,East,90,0.0,1.3,59,0.00,,---,21.61,VWS V12.08,2013-05-16 21:41:00,
2013-05-16 18:03:00,77.5,62.1,29.82,South,180,2.2,2.2,59,0.00,,---,21.61,VWS V12.08,2013-05-16 22:03:00,
2013-05-16 18:22:00,77.1,61.7,29.81,North,0,21.9,21.9,59,0.00,,---,21.61,VWS V12.08,2013-05-16 22:22:00,
2013-05-16 18:38:00,76.8,61.4,29.80,South,180,0.0,21.9,59,0.00,,---,21.61,VWS V12.08,2013-05-16 22:38:00,
2013-05-16 18:40:00,76.8,61.4,29.80,South,180,0.0,21.9,59,0.00,,---,21.61,VWS V12.08,2013-05-16 22:40:00,
2013-05-16 18:56:00,76.6,61.7,29.81,South,180,0.0,0.0,60,0.00,,---,21.61,VWS V12.08,2013-05-16 22:56:00,
2013-05-16 19:01:00,76.8,61.9,29.81,South,180,0.0,0.0,60,0.00,,---,21.61,VWS V12.08,2013-05-16 23:01:00,
2013-05-16 19:18:00,76.8,61.9,29.80,South,180,0.0,0.0,60,0.00,,---,21.61,VWS V12.08,2013-05-16 23:18:00,
2013-05-16 19:20:00,76.6,61.7,29.80,NNE,22,0.0,0.0,60,0.00,,---,21.61,VWS V12.08,2013-05-16 23:20:00,
2013-05-16 19:31:00,76.1,61.2,29.80,ENE,68,0.0,0.0,60,0.00,,---,21.61,VWS V12.08,2013-05-16 23:31:00,
2013-05-16 19:46:00,75.3,60.9,29.81,East,90,0.0,0.0,61,0.00,,---,21.61,VWS V12.08,2013-05-16 23:46:00,
2013-05-16 20:01:00,73.9,60.1,29.81,NNW,338,0.0,0.0,62,0.00,,---,21.61,VWS V12.08,2013-05-17 00:01:00,
2013-05-16 20:16:00,73.2,59.9,29.81,NNW,338,0.0,0.0,63,0.00,,---,21.61,VWS V12.08,2013-05-17 00:16:00,
2013-05-16 20:20:00,73.0,59.7,29.81,NNW,338,0.0,0.0,63,0.00,,---,21.61,VWS V12.08,2013-05-17 00:20:00,
2013-05-16 20:31:00,72.3,58.6,29.82,West,270,0.0,0.0,62,0.00,,---,21.61,VWS V12.08,2013-05-17 00:31:00,
2013-05-16 20:46:00,71.7,58.0,29.82,WNW,292,0.0,0.0,62,0.00,,---,21.61,VWS V12.08,2013-05-17 00:46:00,
2013-05-16 21:01:00,71.2,57.1,29.82,WNW,292,0.0,0.0,61,0.00,,---,21.61,VWS V12.08,2013-05-17 01:01:00,
2013-05-16 21:16:00,70.8,56.7,29.82,WSW,248,0.0,1.3,61,0.00,,---,21.61,VWS V12.08,2013-05-17 01:16:00,
2013-05-16 21:20:00,70.8,56.7,29.82,WSW,248,0.0,1.3,61,0.00,,---,21.61,VWS V12.08,2013-05-17 01:20:00,
2013-05-16 21:31:00,70.7,57.1,29.82,WSW,248,0.0,0.0,62,0.00,,---,21.61,VWS V12.08,2013-05-17 01:31:00,
2013-05-16 21:46:00,70.5,56.4,29.83,WSW,248,0.0,0.0,61,0.00,,---,21.61,VWS V12.08,2013-05-17 01:46:00,
2013-05-16 22:01:00,70.3,54.4,29.83,SSW,202,0.0,1.3,57,0.00,,---,21.61,VWS V12.08,2013-05-17 02:01:00,
2013-05-16 22:16:00,69.9,53.5,29.83,SSW,202,0.0,0.8,56,0.00,,---,21.61,VWS V12.08,2013-05-17 02:16:00,
2013-05-16 22:20:00,69.8,53.4,29.83,SSW,202,1.5,1.5,56,0.00,,---,21.61,VWS V12.08,2013-05-17 02:20:00,
2013-05-16 22:31:00,69.6,53.7,29.84,SSW,202,0.0,2.2,57,0.00,,---,21.61,VWS V12.08,2013-05-17 02:31:00,
2013-05-16 22:46:00,69.6,54.2,29.84,SSW,202,0.0,2.2,58,0.00,,---,21.61,VWS V12.08,2013-05-17 02:46:00,
2013-05-16 23:01:00,69.4,54.5,29.85,SW,225,0.0,0.4,59,0.00,,---,21.61,VWS V12.08,2013-05-17 03:01:00,
2013-05-16 23:16:00,69.0,54.5,29.85,SW,225,0.0,0.0,60,0.00,,---,21.61,VWS V12.08,2013-05-17 03:16:00,
2013-05-16 23:20:00,68.9,54.5,29.85,SSW,202,0.0,0.0,60,0.00,,---,21.61,VWS V12.08,2013-05-17 03:20:00,
2013-05-16 23:31:00,68.7,54.3,29.85,South,180,1.7,0.0,60,0.00,,---,21.61,VWS V12.08,2013-05-17 03:31:00,
2013-05-16 23:46:00,68.7,54.3,29.85,South,180,0.0,2.0,60,0.00,,---,21.61,VWS V12.08,2013-05-17 03:46:00,